White Rock, Minnesota
Current Conditions -  °F | °C
As of 9:33 PM on Wednesday 22 Oct 2014 (Local Time) from KSYN Reporting Station
Scattered Clouds Scattered Clouds  
Wind Chill: 57°   Ceiling: Unl
Heat Index: 57°   Visibility: 10mi
Dew Point: 39°   Wind: 13mph
Humidity: 52%   Direction: 220°SW
Pressure: 30.06"   Gusts: 18mph
Location:  44.4763°N, 92.8054°W
Report Text: KSYN 230233Z AUTO 22011G16KT 170V240 10SM SCT100 14/04 A3006 RMK AO2 T01370041
Loading
Personal Weather Stations






























Interactive Weather Map
Tropical Storm Tracking
New forecast layout! Learn more

10-Day Weather Forecast

Advertisements
Track Severe Weather on mobile